createdAt,value
2022-11-30T00:01:18.265Z,1015.731
2022-11-30T00:06:21.733Z,1015.812
2022-11-30T00:11:25.286Z,1015.808
2022-11-30T00:16:28.773Z,1015.786
2022-11-30T00:21:32.119Z,1015.85
2022-11-30T00:26:35.627Z,1015.81
2022-11-30T00:31:39.566Z,1015.867
2022-11-30T00:36:42.626Z,1015.844
2022-11-30T00:41:45.884Z,1015.764
2022-11-30T00:46:50.588Z,1015.801
2022-11-30T00:51:54.032Z,1015.778
2022-11-30T00:56:57.335Z,1015.815
2022-11-30T01:02:01.197Z,1015.852
2022-11-30T01:07:04.883Z,1015.901
2022-11-30T01:18:11.707Z,1015.868
2022-11-30T01:23:15.198Z,1015.951
2022-11-30T01:28:18.299Z,1015.975
2022-11-30T01:33:22.885Z,1016.1
2022-11-30T01:38:26.689Z,1016.054
2022-11-30T01:43:30.641Z,1016.046
2022-11-30T01:48:33.974Z,1016.013
2022-11-30T01:59:07.002Z,1016.044
2022-11-30T02:04:12.893Z,1016.086
2022-11-30T02:14:47.089Z,1016.122
2022-11-30T02:19:50.043Z,1016.128
2022-11-30T02:24:53.206Z,1016.046
2022-11-30T02:35:29.005Z,1016.143
2022-11-30T02:40:34.727Z,1016.132
2022-11-30T02:45:38.225Z,1016.105
2022-11-30T02:50:41.626Z,1016.115
2022-11-30T02:55:48.788Z,1016.031
2022-11-30T03:00:56.478Z,1016.063
2022-11-30T03:06:00.358Z,1016.164
2022-11-30T03:11:05.908Z,1016.225
2022-11-30T03:16:11.920Z,1016.202
2022-11-30T03:21:17.607Z,1016.191
2022-11-30T03:26:21.112Z,1016.299
2022-11-30T03:31:24.453Z,1016.238
2022-11-30T03:36:30.338Z,1016.247
2022-11-30T03:41:33.936Z,1016.308
2022-11-30T03:46:37.265Z,1016.313
2022-11-30T03:51:40.982Z,1016.332
2022-11-30T03:56:44.682Z,1016.373
2022-11-30T04:01:48.153Z,1016.367
2022-11-30T04:06:51.468Z,1016.429
2022-11-30T04:11:55.029Z,1016.457
2022-11-30T04:16:58.894Z,1016.448
2022-11-30T04:22:02.070Z,1016.48
2022-11-30T04:27:05.528Z,1016.436
2022-11-30T04:32:09.111Z,1016.456
2022-11-30T04:37:12.749Z,1016.541
2022-11-30T04:42:15.743Z,1016.644
2022-11-30T04:47:21.707Z,1016.686
2022-11-30T04:52:24.896Z,1016.686
2022-11-30T05:03:00.574Z,1016.637
2022-11-30T05:08:04.391Z,1016.622
2022-11-30T05:13:07.559Z,1016.695
2022-11-30T05:18:10.735Z,1016.803
2022-11-30T05:23:14.018Z,1016.846
2022-11-30T05:28:17.020Z,1016.915
2022-11-30T05:33:20.435Z,1016.885
2022-11-30T05:38:23.898Z,1016.953
2022-11-30T05:43:27.677Z,1016.992
2022-11-30T05:48:30.813Z,1017.004
2022-11-30T05:53:37.153Z,1017.022
2022-11-30T05:58:40.715Z,1017.023
2022-11-30T06:03:44.141Z,1017.119
2022-11-30T06:08:47.728Z,1017.202
2022-11-30T06:13:51.255Z,1017.233
2022-11-30T06:18:55.470Z,1017.216
2022-11-30T06:30:03.325Z,1017.271
2022-11-30T06:35:06.426Z,1017.293
2022-11-30T06:40:20.632Z,1017.39
2022-11-30T06:45:28.202Z,1017.399
2022-11-30T06:50:34.174Z,1017.398
2022-11-30T06:55:38.601Z,1017.462
2022-11-30T07:00:44.595Z,1017.488
2022-11-30T07:05:49.914Z,1017.565
2022-11-30T07:10:55.945Z,1017.618
2022-11-30T07:15:59.375Z,1017.589
2022-11-30T07:21:02.568Z,1017.584
2022-11-30T07:26:06.087Z,1017.67
2022-11-30T07:31:13.354Z,1017.769
2022-11-30T07:36:13.437Z,1017.825
2022-11-30T07:41:17.156Z,1017.933
2022-11-30T07:46:22.830Z,1017.843
2022-11-30T07:51:28.845Z,1017.981
2022-11-30T07:56:31.834Z,1017.91
2022-11-30T08:01:35.536Z,1017.89
2022-11-30T08:06:38.459Z,1017.937
2022-11-30T08:11:46.361Z,1017.852
2022-11-30T08:16:50.258Z,1017.904
2022-11-30T08:21:53.973Z,1017.998
2022-11-30T08:27:02.155Z,1018.018
2022-11-30T08:32:05.912Z,1018.069
2022-11-30T08:37:09.601Z,1018.11
2022-11-30T08:42:15.780Z,1018.116
2022-11-30T08:53:24.434Z,1018.155
2022-11-30T08:58:30.088Z,1018.249
2022-11-30T09:03:36.347Z,1018.321
2022-11-30T09:08:42.713Z,1018.364
2022-11-30T09:13:48.050Z,1018.284
2022-11-30T09:18:51.728Z,1018.308
2022-11-30T09:23:55.236Z,1018.243
2022-11-30T09:29:00.705Z,1018.339
2022-11-30T09:34:04.165Z,1018.288
2022-11-30T09:39:07.758Z,1018.327
2022-11-30T09:44:13.896Z,1018.344
2022-11-30T09:54:51.396Z,1018.255
2022-11-30T09:59:54.906Z,1018.236
2022-11-30T10:04:58.753Z,1018.155
2022-11-30T10:10:30.121Z,1018.188
2022-11-30T10:15:06.206Z,1018.212
2022-11-30T10:20:12.203Z,1018.155
2022-11-30T10:25:18.311Z,1018.176
2022-11-30T10:30:25.401Z,1018.177
2022-11-30T10:35:31.061Z,1018.166
2022-11-30T10:40:38.367Z,1018.135
2022-11-30T10:45:41.992Z,1018.173
2022-11-30T10:50:45.730Z,1018.243
2022-11-30T10:55:51.767Z,1018.244
2022-11-30T11:00:55.862Z,1018.129
2022-11-30T11:06:01.787Z,1018.132
2022-11-30T11:11:05.021Z,1018.179
2022-11-30T11:16:08.493Z,1018.224
2022-11-30T11:21:14.329Z,1018.27
2022-11-30T11:26:17.942Z,1018.292
2022-11-30T11:31:24.854Z,1018.308
2022-11-30T11:36:28.168Z,1018.286
2022-11-30T11:41:35.027Z,1018.358
2022-11-30T11:46:41.193Z,1018.269
2022-11-30T11:51:47.022Z,1018.388
2022-11-30T11:56:53.564Z,1018.375
2022-11-30T12:01:57.528Z,1018.368
2022-11-30T12:07:01.062Z,1018.404
2022-11-30T12:12:06.999Z,1018.403
2022-11-30T12:17:10.348Z,1018.45
2022-11-30T12:22:15.875Z,1018.437
2022-11-30T12:27:20.270Z,1018.41
2022-11-30T12:32:24.310Z,1018.465
2022-11-30T12:37:27.661Z,1018.469
2022-11-30T12:42:32.274Z,1018.505
2022-11-30T12:47:35.452Z,1018.483
2022-11-30T12:52:41.341Z,1018.552
2022-11-30T12:57:45.239Z,1018.525
2022-11-30T13:03:02.306Z,1018.509
2022-11-30T13:08:09.439Z,1018.46
2022-11-30T13:13:12.546Z,1018.55
2022-11-30T13:18:16.273Z,1018.563
2022-11-30T13:23:22.108Z,1018.616
2022-11-30T13:34:31.403Z,1018.692
2022-11-30T13:39:34.749Z,1018.578
2022-11-30T13:44:38.256Z,1018.638
2022-11-30T13:49:41.958Z,1018.616
2022-11-30T13:54:46.582Z,1018.694
2022-11-30T13:59:52.030Z,1018.741
2022-11-30T14:04:57.532Z,1018.825
2022-11-30T14:10:03.489Z,1018.732
2022-11-30T14:15:10.324Z,1018.862
2022-11-30T14:20:18.946Z,1018.904
2022-11-30T14:25:25.303Z,1018.975
2022-11-30T14:30:32.366Z,1018.96
2022-11-30T14:35:39.227Z,1019.074
2022-11-30T14:40:42.667Z,1019.138
2022-11-30T14:56:01.973Z,1019.254
2022-11-30T15:06:12.166Z,1019.213
2022-11-30T15:11:20.132Z,1019.321
2022-11-30T15:16:27.181Z,1019.325
2022-11-30T15:21:33.168Z,1019.435
2022-11-30T15:26:36.627Z,1019.488
2022-11-30T15:31:39.845Z,1019.499
2022-11-30T15:36:44.087Z,1019.519
2022-11-30T15:41:49.886Z,1019.499
2022-11-30T15:46:56.149Z,1019.464
2022-11-30T15:52:02.100Z,1019.566
2022-11-30T15:57:09.343Z,1019.563
2022-11-30T16:07:42.471Z,1019.612
2022-11-30T16:12:49.005Z,1019.566
2022-11-30T16:17:53.682Z,1019.7
2022-11-30T16:23:04.101Z,1019.673
2022-11-30T16:28:05.720Z,1019.697
2022-11-30T16:33:14.840Z,1019.805
2022-11-30T16:38:23.613Z,1019.779
2022-11-30T16:43:29.287Z,1019.871
2022-11-30T16:48:32.595Z,1019.835
2022-11-30T16:53:39.556Z,1019.885
2022-11-30T16:58:45.755Z,1019.874
2022-11-30T17:09:22.159Z,1019.93
2022-11-30T17:14:27.753Z,1020.071
2022-11-30T17:19:32.100Z,1020.018
2022-11-30T17:24:38.257Z,1020.062
2022-11-30T17:29:45.246Z,1020.079
2022-11-30T17:34:51.516Z,1020.155
2022-11-30T17:39:58.594Z,1020.198
2022-11-30T17:45:04.926Z,1020.146
2022-11-30T17:50:10.985Z,1020.115
2022-11-30T17:55:19.112Z,1020.165
2022-11-30T18:00:23.052Z,1020.241
2022-11-30T18:05:30.017Z,1020.287
2022-11-30T18:10:35.834Z,1020.262
2022-11-30T18:15:42.011Z,1020.274
2022-11-30T18:20:47.700Z,1020.376
2022-11-30T18:25:53.802Z,1020.272
2022-11-30T18:31:00.032Z,1020.385
2022-11-30T18:36:06.631Z,1020.401
2022-11-30T18:41:11.916Z,1020.44
2022-11-30T18:46:20.206Z,1020.539
2022-11-30T18:51:26.293Z,1020.635
2022-11-30T19:02:02.200Z,1020.496
2022-11-30T19:07:09.381Z,1020.638
2022-11-30T19:12:15.876Z,1020.658
2022-11-30T19:17:22.307Z,1020.73
2022-11-30T19:22:33.619Z,1020.666
2022-11-30T19:27:41.404Z,1020.762
2022-11-30T19:32:47.383Z,1020.712
2022-11-30T19:37:53.347Z,1020.844
2022-11-30T19:42:59.068Z,1020.859
2022-11-30T19:53:34.506Z,1020.894
2022-11-30T19:58:40.099Z,1020.955
2022-11-30T20:14:47.084Z,1021.129
2022-11-30T20:25:21.720Z,1021.141
2022-11-30T20:30:27.546Z,1021.152
2022-11-30T20:35:33.309Z,1021.133
2022-11-30T20:40:39.199Z,1021.11
2022-11-30T20:45:45.167Z,1021.289
2022-11-30T20:51:07.557Z,1021.203
2022-11-30T20:55:54.482Z,1021.288
2022-11-30T21:01:00.734Z,1021.191
2022-11-30T21:06:06.090Z,1021.173
2022-11-30T21:11:11.889Z,1021.175
2022-11-30T21:16:25.780Z,1021.261
2022-11-30T21:21:26.493Z,1021.255
2022-11-30T21:26:30.783Z,1021.25
2022-11-30T21:31:38.190Z,1021.299
2022-11-30T21:36:43.823Z,1021.32
2022-11-30T21:41:49.866Z,1021.356
2022-11-30T21:46:56.111Z,1021.303
2022-11-30T21:52:01.390Z,1021.183
2022-11-30T21:57:06.840Z,1021.2
2022-11-30T22:02:12.377Z,1021.217
2022-11-30T22:13:28.974Z,1021.319
2022-11-30T22:18:34.470Z,1021.386
2022-11-30T22:23:40.715Z,1021.331
2022-11-30T22:28:46.561Z,1021.417
2022-11-30T22:33:52.805Z,1021.48
2022-11-30T22:38:59.684Z,1021.398
2022-11-30T22:44:05.861Z,1021.436
2022-11-30T22:54:39.528Z,1021.366
2022-11-30T22:59:45.639Z,1021.3
2022-11-30T23:04:51.315Z,1021.297
2022-11-30T23:09:56.239Z,1021.264
2022-11-30T23:15:03.944Z,1021.166
2022-11-30T23:20:10.160Z,1021.239
2022-11-30T23:25:16.190Z,1021.17
2022-11-30T23:30:20.200Z,1021.169
2022-11-30T23:35:25.812Z,1021.203
2022-11-30T23:40:29.339Z,1021.208
2022-11-30T23:45:35.222Z,1021.213
2022-11-30T23:50:42.376Z,1021.171
2022-11-30T23:55:48.575Z,1021.191
